Time;durP1;ratioP1;P1;durP2;ratioP2;P2;SDS_P1;SDS_P2;PMS_P1;PMS_P2;Temp;Humidity;BMP_temperature;BMP_pressure;BME280_temperature;BME280_humidity;BME280_pressure;Samples;Min_cycle;Max_cycle;Signal;HPM_P1;HPM_P2
2023/10/13 00:00:29;;;;;;;;;;;;;;;14.92;46.77;94355.00;4952867;28;20020;-72
2023/10/13 00:03:00;;;;;;;;;;;;;;;14.89;46.59;94349.53;4953840;28;19968;-73
2023/10/13 00:05:26;;;;;;;;;;;;;;;14.84;46.90;94349.72;4947452;28;19922;-73
2023/10/13 00:07:51;;;;;;;;;;;;;;;14.87;46.56;94357.09;4952015;28;19929;-72
2023/10/13 00:10:18;;;;;;;;;;;;;;;14.87;46.64;94344.47;4951756;28;19922;-70
2023/10/13 00:12:49;;;;;;;;;;;;;;;14.84;46.46;94344.34;4951857;28;19941;-72
2023/10/13 00:15:15;;;;;;;;;;;;;;;14.79;46.40;94350.69;4940011;28;20049;-72
2023/10/13 00:17:41;;;;;;;;;;;;;;;14.77;46.77;94352.91;4947245;28;19926;-72
2023/10/13 00:20:34;;;;;;;;;;;;;;;14.78;46.72;94345.66;4951583;28;20378;-72
2023/10/13 00:22:52;;;;;;;;;;;;;;;14.70;46.66;94346.50;4952858;28;19930;-73
2023/10/13 00:25:26;;;;;;;;;;;;;;;14.66;46.92;94350.94;4953620;28;19971;-71
2023/10/13 00:27:52;;;;;;;;;;;;;;;14.60;47.01;94343.09;4955875;28;20374;-72
2023/10/13 00:30:22;;;;;;;;;;;;;;;14.62;46.74;94342.00;4950920;28;19918;-73
2023/10/13 00:32:54;;;;;;;;;;;;;;;14.57;47.17;94342.97;4954556;28;19922;-71
2023/10/13 00:35:26;;;;;;;;;;;;;;;14.60;46.91;94345.00;4953739;28;19961;-71
2023/10/13 00:37:55;;;;;;;;;;;;;;;14.54;47.19;94349.75;4955879;28;19932;-73
2023/10/13 00:43:28;;;;;;;;;;;;;;;14.48;47.25;94348.34;4958227;28;19914;-71
2023/10/13 00:45:43;;;;;;;;;;;;;;;14.23;47.15;94321.75;4954669;28;20059;-72
2023/10/13 00:48:11;;;;;;;;;;;;;;;14.40;47.44;94359.88;4951464;28;19918;-71
2023/10/13 00:50:36;;;;;;;;;;;;;;;14.37;47.31;94359.75;4952260;28;19919;-71
2023/10/13 00:53:02;;;;;;;;;;;;;;;14.39;47.27;94352.16;4948597;28;20425;-73
2023/10/13 00:55:29;;;;;;;;;;;;;;;14.40;47.52;94349.19;4954531;28;20587;-70
2023/10/13 00:57:57;;;;;;;;;;;;;;;14.36;47.53;94356.28;4950458;28;20013;-71
2023/10/13 01:00:28;;;;;;;;;;;;;;;14.32;47.71;94357.25;4953656;28;19975;-72
2023/10/13 01:02:56;;;;;;;;;;;;;;;14.31;47.90;94358.38;4953702;28;19918;-72
2023/10/13 01:05:23;;;;;;;;;;;;;;;14.29;47.84;94361.34;4954519;28;19922;-71
2023/10/13 01:07:52;;;;;;;;;;;;;;;14.29;47.94;94353.31;4956208;28;19918;-72
2023/10/13 01:10:19;;;;;;;;;;;;;;;14.27;47.70;94349.41;4947684;28;19930;-74
2023/10/13 01:12:45;;;;;;;;;;;;;;;13.99;47.63;94320.44;4953302;28;19914;-71
2023/10/13 01:15:13;;;;;;;;;;;;;;;14.22;47.69;94354.94;4944241;28;19929;-72
2023/10/13 01:17:38;;;;;;;;;;;;;;;14.18;47.81;94357.47;4951314;28;19926;-72
2023/10/13 01:20:05;;;;;;;;;;;;;;;14.19;47.81;94359.03;4949879;28;20362;-72
2023/10/13 01:22:31;;;;;;;;;;;;;;;14.13;47.99;94360.34;4949745;28;19926;-72
2023/10/13 01:25:18;;;;;;;;;;;;;;;14.11;47.99;94365.22;4951036;28;20358;-72
2023/10/13 01:27:48;;;;;;;;;;;;;;;14.14;48.08;94364.56;4954798;28;20294;-73
2023/10/13 01:30:13;;;;;;;;;;;;;;;14.11;48.25;94355.31;4949561;28;20008;-74
2023/10/13 01:32:40;;;;;;;;;;;;;;;14.10;48.11;94361.75;4953230;28;19998;-73
2023/10/13 01:35:09;;;;;;;;;;;;;;;14.14;48.14;94356.53;4954136;28;19929;-73
2023/10/13 01:37:35;;;;;;;;;;;;;;;14.11;48.18;94357.19;4952295;28;19934;-73
2023/10/13 01:40:00;;;;;;;;;;;;;;;13.88;47.92;94321.91;4948822;28;19914;-74
2023/10/13 01:42:25;;;;;;;;;;;;;;;14.08;48.08;94353.25;4952931;28;19919;-74
2023/10/13 01:44:51;;;;;;;;;;;;;;;14.06;48.05;94368.06;4948150;28;20445;-74
2023/10/13 01:47:16;;;;;;;;;;;;;;;14.03;48.14;94376.75;4951073;28;19926;-74
2023/10/13 01:49:42;;;;;;;;;;;;;;;14.07;47.82;94375.00;4951395;28;20424;-73
2023/10/13 01:52:11;;;;;;;;;;;;;;;14.07;47.86;94373.13;4954000;28;19913;-73
2023/10/13 01:54:40;;;;;;;;;;;;;;;14.06;48.11;94370.75;4950418;28;19918;-73
2023/10/13 01:57:06;;;;;;;;;;;;;;;14.04;48.44;94373.75;4950283;28;20550;-73
2023/10/13 01:59:31;;;;;;;;;;;;;;;14.00;48.18;94362.13;4949117;28;19918;-75
2023/10/13 02:02:00;;;;;;;;;;;;;;;14.08;48.18;94363.19;4952685;28;20400;-72
2023/10/13 02:04:32;;;;;;;;;;;;;;;14.04;48.18;94344.31;4953405;28;19918;-73
2023/10/13 02:07:00;;;;;;;;;;;;;;;14.02;48.40;94343.88;4950990;28;19927;-72
2023/10/13 02:09:26;;;;;;;;;;;;;;;14.07;48.27;94345.59;4950928;28;19918;-73
2023/10/13 02:11:55;;;;;;;;;;;;;;;14.10;48.08;94348.38;4947319;28;19930;-73
2023/10/13 02:14:25;;;;;;;;;;;;;;;14.02;48.27;94346.53;4952800;28;19933;-73
2023/10/13 02:16:50;;;;;;;;;;;;;;;14.00;48.13;94350.63;4953388;28;19929;-73
2023/10/13 02:19:19;;;;;;;;;;;;;;;13.99;48.30;94349.06;4955101;28;19918;-74
2023/10/13 02:21:45;;;;;;;;;;;;;;;13.98;48.36;94348.28;4950513;28;19925;-73
2023/10/13 02:24:17;;;;;;;;;;;;;;;13.99;48.07;94349.06;4950270;28;19922;-73
2023/10/13 02:26:43;;;;;;;;;;;;;;;14.01;48.48;94352.22;4946682;28;19987;-73
2023/10/13 02:29:08;;;;;;;;;;;;;;;13.99;48.25;94349.06;4952012;28;20445;-73
2023/10/13 02:31:37;;;;;;;;;;;;;;;13.97;48.36;94348.63;4947949;28;20426;-73
2023/10/13 02:34:08;;;;;;;;;;;;;;;13.98;48.25;94347.50;4950736;28;20444;-71
2023/10/13 02:36:37;;;;;;;;;;;;;;;13.99;48.30;94351.72;4949537;28;19918;-74
2023/10/13 02:39:07;;;;;;;;;;;;;;;13.98;48.40;94347.50;4953313;28;20305;-73
2023/10/13 02:41:33;;;;;;;;;;;;;;;14.00;48.39;94346.06;4949249;28;20365;-74
2023/10/13 02:43:58;;;;;;;;;;;;;;;13.94;48.21;94342.00;4949749;28;19997;-75
2023/10/13 02:46:29;;;;;;;;;;;;;;;13.91;48.44;94348.00;4947796;28;19930;-73
2023/10/13 02:48:57;;;;;;;;;;;;;;;13.87;48.30;94340.94;4952867;28;19925;-74
2023/10/13 02:51:31;;;;;;;;;;;;;;;13.86;48.44;94356.19;4950804;28;19929;-73
2023/10/13 02:54:02;;;;;;;;;;;;;;;13.81;48.66;94359.03;4950766;28;20404;-73
2023/10/13 02:56:28;;;;;;;;;;;;;;;13.80;48.76;94364.69;4953111;28;20059;-72
2023/10/13 02:58:56;;;;;;;;;;;;;;;13.81;48.50;94368.94;4947164;28;20558;-72
2023/10/13 03:01:27;;;;;;;;;;;;;;;13.80;48.55;94370.03;4949760;28;19922;-74
2023/10/13 03:03:54;;;;;;;;;;;;;;;13.82;48.56;94367.84;4957646;28;19914;-73
2023/10/13 03:06:24;;;;;;;;;;;;;;;13.83;48.67;94372.09;4950220;28;19992;-73
2023/10/13 03:08:49;;;;;;;;;;;;;;;13.84;48.62;94371.00;4954741;28;20373;-75
2023/10/13 03:11:17;;;;;;;;;;;;;;;13.83;48.46;94364.06;4951114;28;20374;-73
2023/10/13 03:13:45;;;;;;;;;;;;;;;13.78;48.37;94367.72;4949456;28;20796;-73
2023/10/13 03:16:19;;;;;;;;;;;;;;;13.75;48.48;94366.44;4953494;28;20460;-72
2023/10/13 03:18:53;;;;;;;;;;;;;;;13.70;48.37;94369.28;4953050;28;19922;-73
2023/10/13 03:21:29;;;;;;;;;;;;;;;13.67;48.46;94385.97;4949820;28;19976;-72
2023/10/13 03:24:07;;;;;;;;;;;;;;;13.67;48.62;94375.28;4950838;28;19969;-71
2023/10/13 03:26:37;;;;;;;;;;;;;;;13.72;48.67;94371.66;4948714;28;19960;-73
2023/10/13 03:29:07;;;;;;;;;;;;;;;13.64;48.74;94370.56;4952036;28;19954;-74
2023/10/13 03:31:36;;;;;;;;;;;;;;;13.57;49.19;94367.56;4948198;28;19940;-74
2023/10/13 03:34:03;;;;;;;;;;;;;;;13.59;49.19;94369.97;4952727;28;19914;-74
2023/10/13 03:39:13;;;;;;;;;;;;;;;13.69;48.55;94367.72;4954664;28;20404;-74
2023/10/13 03:41:39;;;;;;;;;;;;;;;13.67;48.93;94367.25;4952048;28;19918;-73
2023/10/13 03:44:12;;;;;;;;;;;;;;;13.66;49.01;94357.66;4954226;28;19937;-74
2023/10/13 03:46:41;;;;;;;;;;;;;;;13.46;49.01;94326.25;4949982;28;19929;-73
2023/10/13 03:49:12;;;;;;;;;;;;;;;13.60;48.78;94350.91;4955362;28;19918;-73
2023/10/13 03:51:39;;;;;;;;;;;;;;;13.60;48.86;94352.81;4956328;28;19910;-74
2023/10/13 03:54:08;;;;;;;;;;;;;;;13.56;48.87;94347.28;4952837;28;19918;-73
2023/10/13 03:56:40;;;;;;;;;;;;;;;13.51;48.95;94334.09;4953959;28;19922;-73
2023/10/13 03:59:09;;;;;;;;;;;;;;;13.51;48.96;94336.78;4948222;28;19919;-73
2023/10/13 04:01:45;;;;;;;;;;;;;;;13.50;48.73;94332.53;4954169;28;19956;-74
2023/10/13 04:04:11;;;;;;;;;;;;;;;13.40;49.02;94332.84;4952764;28;19928;-74
2023/10/13 04:17:14;;;;;;;;;;;;;;;13.27;49.04;94331.16;4954250;28;21048;-74
2023/10/13 04:41:24;;;;;;;;;;;;;;;13.19;49.85;94358.69;4953740;28;20467;-75
2023/10/13 04:43:56;;;;;;;;;;;;;;;13.18;49.85;94359.78;4944165;28;20001;-73
2023/10/13 05:48:54;;;;;;;;;;;;;;;13.46;51.45;94438.47;4950375;28;20843;-74
2023/10/13 06:29:33;;;;;;;;;;;;;;;14.46;51.42;94465.66;4950516;28;19933;-73
2023/10/13 06:32:01;;;;;;;;;;;;;;;14.51;51.57;94462.78;4945902;28;19919;-73
2023/10/13 06:34:37;;;;;;;;;;;;;;;14.59;51.18;94469.25;4946768;28;20004;-70
2023/10/13 06:37:22;;;;;;;;;;;;;;;14.64;51.03;94465.59;4951842;28;19922;-71
2023/10/13 06:39:48;;;;;;;;;;;;;;;14.73;50.92;94466.34;4957861;28;19980;-72
2023/10/13 06:42:13;;;;;;;;;;;;;;;14.78;50.05;94458.13;4949151;28;20345;-71
2023/10/13 06:44:40;;;;;;;;;;;;;;;14.84;50.48;94470.22;4948268;28;19922;-72
2023/10/13 06:47:05;;;;;;;;;;;;;;;14.93;50.09;94463.69;4952095;28;19954;-72
2023/10/13 06:49:38;;;;;;;;;;;;;;;14.99;49.91;94459.75;4949080;28;20418;-71
2023/10/13 06:52:06;;;;;;;;;;;;;;;15.02;50.16;94455.59;4951944;28;19917;-72
2023/10/13 06:54:33;;;;;;;;;;;;;;;15.13;50.23;94459.47;4949212;28;19910;-73
2023/10/13 06:56:59;;;;;;;;;;;;;;;15.26;49.25;94460.31;4951533;28;19929;-73
2023/10/13 06:59:26;;;;;;;;;;;;;;;15.28;49.36;94450.88;4952083;28;19983;-72
2023/10/13 07:01:52;;;;;;;;;;;;;;;15.32;49.26;94462.50;4950074;28;20447;-74
2023/10/13 07:04:18;;;;;;;;;;;;;;;15.36;49.00;94460.72;4941918;28;20133;-72
2023/10/13 07:06:50;;;;;;;;;;;;;;;15.51;48.86;94447.88;4951789;28;20068;-74
2023/10/13 07:12:04;;;;;;;;;;;;;;;15.46;48.70;94432.78;4953282;28;19948;-71
2023/10/13 07:14:33;;;;;;;;;;;;;;;15.56;48.36;94431.59;4950817;28;19953;-72
2023/10/13 07:17:02;;;;;;;;;;;;;;;15.65;48.13;94434.97;4950912;28;20014;-72
2023/10/13 07:19:28;;;;;;;;;;;;;;;15.74;47.90;94444.50;4951693;28;19922;-72
2023/10/13 07:24:42;;;;;;;;;;;;;;;15.84;47.87;94454.06;4955071;28;19925;-72
2023/10/13 07:27:07;;;;;;;;;;;;;;;15.88;46.94;94460.34;4945040;28;19926;-74
2023/10/13 07:29:35;;;;;;;;;;;;;;;16.04;46.51;94458.56;4955249;28;19930;-74
2023/10/13 07:32:05;;;;;;;;;;;;;;;16.04;46.77;94458.56;4952180;28;19922;-73
2023/10/13 07:34:35;;;;;;;;;;;;;;;16.13;46.27;94456.59;4952643;28;19918;-72
2023/10/13 07:37:01;;;;;;;;;;;;;;;16.04;46.32;94453.19;4958214;28;19918;-74
2023/10/13 07:39:33;;;;;;;;;;;;;;;16.19;45.31;94457.16;4951379;28;19967;-73
2023/10/13 07:42:05;;;;;;;;;;;;;;;16.23;45.87;94442.72;4951167;28;20341;-73
2023/10/13 07:44:34;;;;;;;;;;;;;;;16.20;46.60;94435.34;4946194;28;19922;-72
2023/10/13 07:47:02;;;;;;;;;;;;;;;16.21;46.49;94434.25;4952759;28;19940;-72
2023/10/13 07:49:36;;;;;;;;;;;;;;;16.33;46.14;94428.13;4955817;28;19922;-72
2023/10/13 07:57:32;;;;;;;;;;;;;;;16.49;45.98;94431.72;4950215;28;19991;-74
2023/10/13 08:00:25;;;;;;;;;;;;;;;16.44;46.22;94433.84;4954879;28;19918;-75
2023/10/13 08:03:07;;;;;;;;;;;;;;;16.63;45.97;94432.16;4955857;28;19925;-74
2023/10/13 08:08:17;;;;;;;;;;;;;;;16.81;44.55;94435.44;4951942;28;20435;-74
2023/10/13 08:10:45;;;;;;;;;;;;;;;16.89;44.91;94428.38;4951809;28;19930;-74
2023/10/13 08:13:12;;;;;;;;;;;;;;;16.87;45.23;94420.63;4950893;28;19936;-73
2023/10/13 08:15:47;;;;;;;;;;;;;;;16.91;44.80;94415.38;4949675;28;19956;-74
2023/10/13 08:18:29;;;;;;;;;;;;;;;16.94;45.35;94418.16;4947064;28;20413;-73
2023/10/13 08:21:03;;;;;;;;;;;;;;;17.01;45.33;94423.75;4948090;28;19926;-73
2023/10/13 08:24:06;;;;;;;;;;;;;;;16.99;45.21;94427.91;4949335;28;19961;-73
2023/10/13 08:29:51;;;;;;;;;;;;;;;17.24;44.42;94439.44;4953976;28;19944;-72
2023/10/13 08:31:49;;;;;;;;;;;;;;;17.30;43.80;94448.81;4952823;28;19931;-74
2023/10/13 08:34:23;;;;;;;;;;;;;;;17.37;44.07;94455.19;4946894;28;19999;-70
2023/10/13 08:36:48;;;;;;;;;;;;;;;17.44;43.19;94451.94;4959509;28;19918;-74
2023/10/13 08:39:58;;;;;;;;;;;;;;;17.46;43.81;94446.97;4947984;28;19929;-71
2023/10/13 08:42:15;;;;;;;;;;;;;;;17.54;43.04;94435.31;4951853;28;19922;-72
2023/10/13 08:44:52;;;;;;;;;;;;;;;17.57;42.94;94427.34;4951988;28;19922;-71
2023/10/13 08:47:20;;;;;;;;;;;;;;;17.60;43.39;94426.63;4952744;28;19972;-71
2023/10/13 08:49:56;;;;;;;;;;;;;;;17.65;43.42;94427.53;4947156;28;20431;-72
2023/10/13 08:55:35;;;;;;;;;;;;;;;17.77;43.05;94425.56;4961456;28;19964;-70
2023/10/13 08:58:03;;;;;;;;;;;;;;;17.85;42.72;94426.53;4951191;28;19993;-74
2023/10/13 09:03:49;;;;;;;;;;;;;;;17.99;42.42;94430.41;4949283;28;19975;-73
2023/10/13 09:06:06;;;;;;;;;;;;;;;18.02;41.84;94432.44;4952613;28;19970;-75
2023/10/13 09:09:06;;;;;;;;;;;;;;;18.06;41.88;94423.66;4953334;28;20005;-73
2023/10/13 09:11:26;;;;;;;;;;;;;;;18.12;41.97;94424.97;4946616;28;20054;-71
2023/10/13 09:13:52;;;;;;;;;;;;;;;18.16;42.25;94425.84;4945570;28;19922;-71
2023/10/13 09:19:04;;;;;;;;;;;;;;;18.33;43.13;94426.28;4944924;28;19968;-73
2023/10/13 09:24:51;;;;;;;;;;;;;;;18.45;42.11;94428.91;4950981;28;19921;-73
2023/10/13 09:27:01;;;;;;;;;;;;;;;18.55;42.08;94421.44;4954158;28;19930;-71
2023/10/13 09:29:28;;;;;;;;;;;;;;;18.66;42.20;94415.19;4950742;28;19941;-71
2023/10/13 09:32:00;;;;;;;;;;;;;;;18.68;41.80;94410.19;4939780;28;20433;-73
2023/10/13 09:34:29;;;;;;;;;;;;;;;18.79;41.92;94405.88;4950532;28;20629;-71
2023/10/13 09:36:59;;;;;;;;;;;;;;;18.85;41.07;94403.69;4950251;28;19918;-73
2023/10/13 09:39:40;;;;;;;;;;;;;;;18.80;39.85;94377.03;4951798;28;19929;-73
2023/10/13 09:42:10;;;;;;;;;;;;;;;19.12;39.20;94401.97;4949404;28;19929;-72
2023/10/13 09:44:37;;;;;;;;;;;;;;;19.19;38.43;94391.34;4946722;28;20232;-73
2023/10/13 09:47:08;;;;;;;;;;;;;;;19.28;37.63;94391.91;4948601;28;19970;-72
2023/10/13 09:49:45;;;;;;;;;;;;;;;19.32;37.97;94390.06;4948100;28;20960;-70
2023/10/13 09:52:19;;;;;;;;;;;;;;;19.37;38.36;94389.78;4950204;28;19918;-70
2023/10/13 09:55:09;;;;;;;;;;;;;;;19.49;38.39;94395.09;4953949;28;20008;-74
2023/10/13 09:57:40;;;;;;;;;;;;;;;19.52;37.69;94393.59;4937805;28;19921;-73
2023/10/13 10:03:14;;;;;;;;;;;;;;;19.68;37.13;94380.81;5034853;27;19979;-71
2023/10/13 10:05:53;;;;;;;;;;;;;;;19.69;36.16;94377.75;5038330;28;19925;-73
2023/10/13 10:08:33;;;;;;;;;;;;;;;19.77;36.69;94377.88;5018883;28;19924;-72
2023/10/13 10:11:17;;;;;;;;;;;;;;;19.87;36.06;94378.09;5013507;28;19971;-72
2023/10/13 10:14:08;;;;;;;;;;;;;;;19.96;35.72;94380.53;5016928;28;19929;-73
2023/10/13 10:16:52;;;;;;;;;;;;;;;20.03;36.50;94375.28;5023925;28;19928;-72
2023/10/13 10:19:18;;;;;;;;;;;;;;;20.11;37.25;94364.25;5024399;28;19925;-72
2023/10/13 10:21:44;;;;;;;;;;;;;;;20.18;36.81;94366.31;4988929;28;19930;-71
2023/10/13 10:24:30;;;;;;;;;;;;;;;20.21;36.58;94365.59;5011529;28;20643;-73
2023/10/13 10:26:58;;;;;;;;;;;;;;;20.32;36.09;94354.97;4953969;28;20437;-73
2023/10/13 10:29:23;;;;;;;;;;;;;;;20.46;35.65;94355.97;5022519;28;19928;-74
2023/10/13 10:31:50;;;;;;;;;;;;;;;20.50;35.51;94361.44;5019962;28;20302;-72
2023/10/13 10:34:19;;;;;;;;;;;;;;;20.55;35.41;94356.50;5022053;28;19925;-72
2023/10/13 10:36:51;;;;;;;;;;;;;;;20.62;33.71;94352.34;5019809;28;19921;-72
2023/10/13 10:39:17;;;;;;;;;;;;;;;20.55;33.14;94351.09;5022006;28;20012;-73
2023/10/13 10:42:01;;;;;;;;;;;;;;;20.77;33.84;94346.00;5020406;28;19974;-73
2023/10/13 10:44:34;;;;;;;;;;;;;;;20.91;34.84;94340.84;5006043;28;19925;-73
2023/10/13 10:47:29;;;;;;;;;;;;;;;20.92;32.82;94345.09;5015983;28;19980;-73
2023/10/13 10:50:06;;;;;;;;;;;;;;;20.72;32.98;94328.19;5006180;28;20543;-72
2023/10/13 10:52:36;;;;;;;;;;;;;;;21.00;32.51;94347.53;5024456;28;20000;-72
2023/10/13 10:55:06;;;;;;;;;;;;;;;21.23;33.71;94352.06;5025283;28;20326;-72
2023/10/13 10:57:37;;;;;;;;;;;;;;;21.09;32.10;94343.75;5013125;28;20553;-72
2023/10/13 11:00:12;;;;;;;;;;;;;;;21.08;32.40;94345.69;5023832;28;20017;-74
2023/10/13 11:02:38;;;;;;;;;;;;;;;21.10;32.28;94348.03;5022558;28;19929;-72
2023/10/13 11:05:05;;;;;;;;;;;;;;;21.22;32.67;94345.88;5038417;28;19921;-72
2023/10/13 11:07:31;;;;;;;;;;;;;;;21.28;32.20;94339.00;5019538;28;19967;-72
2023/10/13 11:10:27;;;;;;;;;;;;;;;21.34;31.79;94340.22;5021004;28;19917;-73
2023/10/13 11:13:21;;;;;;;;;;;;;;;21.46;32.23;94331.09;5031097;28;19975;-72
2023/10/13 11:15:52;;;;;;;;;;;;;;;21.50;31.93;94329.22;5009469;28;19925;-71
2023/10/13 11:18:33;;;;;;;;;;;;;;;21.56;31.91;94325.03;5015597;28;19925;-71
2023/10/13 11:20:59;;;;;;;;;;;;;;;21.67;32.36;94328.66;5009862;28;19929;-72
2023/10/13 11:23:29;;;;;;;;;;;;;;;21.63;32.12;94324.34;5008158;28;19924;-71
2023/10/13 11:25:59;;;;;;;;;;;;;;;21.64;31.45;94320.50;5017104;28;20387;-72
2023/10/13 11:28:27;;;;;;;;;;;;;;;21.71;31.30;94313.22;5022418;28;19928;-72
2023/10/13 11:30:58;;;;;;;;;;;;;;;21.80;31.03;94310.22;5009909;28;19921;-71
2023/10/13 11:33:25;;;;;;;;;;;;;;;21.83;30.54;94317.59;5007891;28;19926;-72
2023/10/13 11:38:26;;;;;;;;;;;;;;;22.14;30.97;94310.91;5006305;28;19931;-71
2023/10/13 11:41:12;;;;;;;;;;;;;;;22.15;31.76;94310.53;5022304;28;19921;-71
2023/10/13 11:46:18;;;;;;;;;;;;;;;22.17;29.55;94312.88;5010689;28;19921;-72
2023/10/13 11:48:46;;;;;;;;;;;;;;;22.19;29.84;94297.78;5004540;28;19913;-73
2023/10/13 11:51:23;;;;;;;;;;;;;;;22.23;30.45;94298.66;5004985;28;19967;-73
2023/10/13 11:53:51;;;;;;;;;;;;;;;22.29;32.06;94297.13;5007387;28;20598;-73
2023/10/13 11:56:17;;;;;;;;;;;;;;;22.23;29.89;94293.22;5007373;28;19954;-70
2023/10/13 11:58:42;;;;;;;;;;;;;;;22.15;29.95;94296.19;5005980;28;19924;-82
2023/10/13 12:09:52;;;;;;;;;;;;;;;22.43;28.73;94284.84;4927957;28;19954;-92
2023/10/13 12:12:23;;;;;;;;;;;;;;;22.54;30.83;94281.03;4930765;28;19962;-80
2023/10/13 12:15:36;;;;;;;;;;;;;;;22.58;31.88;94275.66;4910508;28;19927;-72
